Time;durP1;ratioP1;P1;durP2;ratioP2;P2;SDS_P1;SDS_P2;PMS_P1;PMS_P2;Temp;Humidity;BMP_temperature;BMP_pressure;BME280_temperature;BME280_humidity;BME280_pressure;Samples;Min_cycle;Max_cycle;Signal;HPM_P1;HPM_P2
2022/10/08 00:00:50;;;;;;;6.10;5.50;;;13.90;99.90;;;;;;5053972;28;20479;-69
2022/10/08 00:03:18;;;;;;;6.77;6.07;;;13.90;99.90;;;;;;5053003;28;20456;-68
2022/10/08 00:05:56;;;;;;;6.70;5.47;;;13.90;99.90;;;;;;5054011;28;20899;-69
2022/10/08 00:08:23;;;;;;;7.13;5.33;;;13.90;99.90;;;;;;5053643;28;20535;-69
2022/10/08 00:10:53;;;;;;;6.67;5.97;;;13.90;99.90;;;;;;5053625;28;20494;-68
2022/10/08 00:13:20;;;;;;;7.47;6.20;;;13.90;99.90;;;;;;5052841;28;20494;-70
2022/10/08 00:15:47;;;;;;;7.73;5.93;;;13.90;99.90;;;;;;5053671;28;20833;-69
2022/10/08 00:18:14;;;;;;;6.70;5.93;;;13.80;99.90;;;;;;5053553;28;20835;-69
2022/10/08 00:20:41;;;;;;;7.60;5.87;;;13.80;99.90;;;;;;5053555;28;21003;-70
2022/10/08 00:23:09;;;;;;;7.07;5.70;;;13.80;99.90;;;;;;5052801;28;20491;-70
2022/10/08 00:25:41;;;;;;;7.60;6.50;;;13.80;99.90;;;;;;5053173;28;20484;-69
2022/10/08 00:28:08;;;;;;;7.40;6.60;;;13.80;99.90;;;;;;5053371;28;20514;-69
2022/10/08 00:30:36;;;;;;;6.53;5.93;;;13.80;99.90;;;;;;5053046;28;20488;-70
2022/10/08 00:33:03;;;;;;;7.63;5.93;;;13.80;99.90;;;;;;5052716;28;20955;-69
2022/10/08 00:35:29;;;;;;;6.80;6.10;;;13.80;99.90;;;;;;5053176;28;20479;-70
2022/10/08 00:37:56;;;;;;;6.87;6.17;;;13.80;99.90;;;;;;5053107;28;20466;-69
2022/10/08 00:40:24;;;;;;;6.67;5.73;;;13.80;99.90;;;;;;5052836;28;20459;-69
2022/10/08 00:42:52;;;;;;;7.43;5.80;;;13.80;99.90;;;;;;5052581;28;20958;-69
2022/10/08 00:45:19;;;;;;;8.03;6.03;;;13.90;99.90;;;;;;5052089;28;20479;-68
2022/10/08 00:47:47;;;;;;;6.23;5.57;;;13.90;99.90;;;;;;5053152;28;20818;-69
2022/10/08 00:50:18;;;;;;;8.13;6.00;;;13.90;99.90;;;;;;5052712;28;20491;-69
2022/10/08 00:52:47;;;;;;;6.20;5.60;;;13.90;99.90;;;;;;5052372;28;20456;-69
2022/10/08 00:55:17;;;;;;;5.97;5.47;;;13.90;99.90;;;;;;5052607;28;20999;-69
2022/10/08 00:57:45;;;;;;;6.60;5.90;;;13.90;99.90;;;;;;5052737;28;20471;-69
2022/10/08 01:00:15;;;;;;;7.00;5.30;;;13.90;99.90;;;;;;5052552;28;20456;-68
2022/10/08 01:02:42;;;;;;;7.30;5.00;;;13.90;99.90;;;;;;5052153;28;20483;-69
2022/10/08 01:05:11;;;;;;;6.13;5.53;;;13.90;99.90;;;;;;5052578;28;20479;-68
2022/10/08 01:07:46;;;;;;;7.80;5.77;;;13.90;99.90;;;;;;5052587;28;20480;-69
2022/10/08 01:10:21;;;;;;;6.00;4.60;;;13.90;99.90;;;;;;5052442;28;20487;-68
2022/10/08 01:13:08;;;;;;;8.60;6.13;;;13.90;99.90;;;;;;5051922;28;20471;-68
2022/10/08 01:15:39;;;;;;;9.50;6.20;;;13.90;99.90;;;;;;5052213;28;21013;-69
2022/10/08 01:18:13;;;;;;;5.90;5.30;;;13.90;99.90;;;;;;5052320;28;20460;-69
2022/10/08 01:20:51;;;;;;;6.10;5.40;;;13.90;99.90;;;;;;5052133;28;20818;-69
2022/10/08 01:23:37;;;;;;;8.43;5.60;;;13.90;99.90;;;;;;5051613;28;20460;-68
2022/10/08 01:26:21;;;;;;;7.30;5.20;;;13.90;99.90;;;;;;5052267;28;20471;-69
2022/10/08 01:28:56;;;;;;;6.57;5.23;;;13.90;99.90;;;;;;5052063;28;20892;-68
2022/10/08 01:31:26;;;;;;;5.67;5.10;;;13.90;99.90;;;;;;5051447;28;20837;-68
2022/10/08 01:33:57;;;;;;;5.13;4.63;;;14.00;99.90;;;;;;5051987;28;20491;-68
2022/10/08 01:36:27;;;;;;;5.70;5.03;;;14.00;99.90;;;;;;5052148;28;20468;-69
2022/10/08 01:38:58;;;;;;;5.87;5.27;;;14.00;99.90;;;;;;5052059;28;20460;-68
2022/10/08 01:41:28;;;;;;;5.27;4.80;;;14.00;99.90;;;;;;5051120;28;20464;-69
2022/10/08 01:44:02;;;;;;;6.73;5.07;;;14.00;99.90;;;;;;5051857;28;20519;-69
2022/10/08 01:46:31;;;;;;;6.70;6.00;;;14.00;99.90;;;;;;5051937;28;20464;-69
2022/10/08 01:49:02;;;;;;;6.57;5.87;;;14.00;99.90;;;;;;5051671;28;21018;-69
2022/10/08 01:51:32;;;;;;;6.10;5.50;;;14.00;99.90;;;;;;5050900;28;20484;-69
2022/10/08 01:54:03;;;;;;;7.87;5.30;;;14.00;99.90;;;;;;5051605;28;20484;-69
2022/10/08 01:56:32;;;;;;;10.17;6.57;;;14.00;99.90;;;;;;5050414;28;20464;-68
2022/10/08 01:59:07;;;;;;;5.53;4.93;;;14.00;99.90;;;;;;5051609;28;20464;-69
2022/10/08 02:01:41;;;;;;;6.53;5.30;;;14.00;99.90;;;;;;5050944;28;20974;-69
2022/10/08 02:06:56;;;;;;;7.03;5.33;;;14.00;99.90;;;;;;5051599;28;20978;-69
2022/10/08 02:09:25;;;;;;;6.10;5.40;;;14.00;99.90;;;;;;5051357;28;20510;-69
2022/10/08 02:11:52;;;;;;;5.30;4.80;;;14.00;99.90;;;;;;5050753;28;20876;-69
2022/10/08 02:14:22;;;;;;;9.27;5.40;;;14.00;99.90;;;;;;5051155;28;20487;-69
2022/10/08 02:16:52;;;;;;;5.57;5.07;;;14.00;99.90;;;;;;5051452;28;20492;-69
2022/10/08 02:19:26;;;;;;;6.00;5.20;;;14.00;99.90;;;;;;5051157;28;20483;-69
2022/10/08 02:21:58;;;;;;;6.50;4.70;;;14.00;99.90;;;;;;5050677;28;20452;-69
2022/10/08 02:24:30;;;;;;;6.97;5.23;;;14.00;99.90;;;;;;5050975;28;20855;-69
2022/10/08 02:26:58;;;;;;;5.43;4.80;;;14.00;99.90;;;;;;5051171;28;20464;-69
2022/10/08 02:29:32;;;;;;;5.57;5.00;;;14.00;99.90;;;;;;5050809;28;20468;-69
2022/10/08 02:32:05;;;;;;;5.13;4.63;;;14.00;99.90;;;;;;5050318;28;21077;-68
2022/10/08 02:34:36;;;;;;;6.33;4.63;;;14.00;99.90;;;;;;5050821;28;20487;-69
2022/10/08 02:37:07;;;;;;;5.47;4.87;;;14.00;99.90;;;;;;5050972;28;21061;-68
2022/10/08 02:39:40;;;;;;;5.57;4.60;;;14.10;99.90;;;;;;5050759;28;20483;-69
2022/10/08 02:42:10;;;;;;;6.47;4.80;;;14.10;99.90;;;;;;5050345;28;20460;-68
2022/10/08 02:44:42;;;;;;;5.67;5.07;;;14.10;99.90;;;;;;5050948;28;20479;-69
2022/10/08 02:47:13;;;;;;;7.13;5.23;;;14.00;99.90;;;;;;5050829;28;20817;-69
2022/10/08 02:49:42;;;;;;;5.37;4.87;;;14.00;99.90;;;;;;5050562;28;21015;-68
2022/10/08 02:52:10;;;;;;;5.40;4.97;;;14.00;99.90;;;;;;5050219;28;20494;-69
2022/10/08 02:54:40;;;;;;;8.33;5.10;;;14.00;99.90;;;;;;5050347;28;20475;-69
2022/10/08 02:57:13;;;;;;;7.70;5.40;;;14.00;99.90;;;;;;5050727;28;20464;-68
2022/10/08 02:59:42;;;;;;;10.90;5.77;;;14.00;99.90;;;;;;5050590;28;20464;-69
2022/10/08 03:02:11;;;;;;;6.77;4.93;;;14.00;99.90;;;;;;5050103;28;20460;-69
2022/10/08 03:04:42;;;;;;;6.90;4.80;;;14.00;99.90;;;;;;5050310;28;20484;-69
2022/10/08 03:07:11;;;;;;;4.93;4.37;;;14.00;99.90;;;;;;5050342;28;21022;-70
2022/10/08 03:09:40;;;;;;;9.27;5.07;;;14.00;99.90;;;;;;5049882;28;20464;-70
2022/10/08 03:12:07;;;;;;;4.73;4.30;;;13.90;99.90;;;;;;5049745;28;20849;-70
2022/10/08 03:14:38;;;;;;;5.27;4.77;;;13.90;99.90;;;;;;5050216;28;20850;-68
2022/10/08 03:17:06;;;;;;;5.47;4.53;;;13.90;99.90;;;;;;5050376;28;20464;-69
2022/10/08 03:19:34;;;;;;;5.80;5.20;;;13.90;99.90;;;;;;5050151;28;20464;-68
2022/10/08 03:22:02;;;;;;;6.77;5.03;;;13.90;99.90;;;;;;5049883;28;20456;-69
2022/10/08 03:24:29;;;;;;;5.93;4.73;;;13.90;99.90;;;;;;5050126;28;20487;-67
2022/10/08 03:26:56;;;;;;;6.87;4.50;;;13.90;99.90;;;;;;5050465;28;20471;-68
2022/10/08 03:29:22;;;;;;;5.00;4.50;;;13.80;99.90;;;;;;5050098;28;20464;-68
2022/10/08 03:31:50;;;;;;;6.13;3.90;;;13.80;99.90;;;;;;5049671;28;20487;-67
2022/10/08 03:34:18;;;;;;;6.00;4.90;;;13.80;99.90;;;;;;5050242;28;20507;-69
2022/10/08 03:36:45;;;;;;;5.57;4.57;;;13.80;99.90;;;;;;5050230;28;20467;-68
2022/10/08 03:39:12;;;;;;;5.20;4.37;;;13.70;99.90;;;;;;5049420;28;20515;-68
2022/10/08 03:41:40;;;;;;;5.40;4.67;;;13.70;99.90;;;;;;5049755;28;20834;-69
2022/10/08 03:44:08;;;;;;;6.13;4.97;;;13.70;99.90;;;;;;5050010;28;20495;-68
2022/10/08 03:46:35;;;;;;;6.80;5.00;;;13.60;99.90;;;;;;5050508;28;20506;-69
2022/10/08 03:49:01;;;;;;;6.00;4.33;;;13.60;99.90;;;;;;5050006;28;20935;-69
2022/10/08 03:51:29;;;;;;;4.90;4.40;;;13.60;99.90;;;;;;5049420;28;20484;-69
2022/10/08 03:53:57;;;;;;;7.40;4.50;;;13.60;99.90;;;;;;5049757;28;20833;-71
2022/10/08 03:56:24;;;;;;;4.30;3.90;;;13.60;99.90;;;;;;5050158;28;20487;-70
2022/10/08 03:58:53;;;;;;;5.63;4.97;;;13.60;99.90;;;;;;5049749;28;20459;-70
2022/10/08 04:01:20;;;;;;;5.63;4.20;;;13.60;99.90;;;;;;5049600;28;20455;-70
2022/10/08 04:03:46;;;;;;;4.83;4.37;;;13.50;99.90;;;;;;5049836;28;20487;-69
2022/10/08 04:06:14;;;;;;;5.90;4.97;;;13.50;99.90;;;;;;5050135;28;20460;-71
2022/10/08 04:08:42;;;;;;;5.30;4.80;;;13.50;99.90;;;;;;5049872;28;20471;-70
2022/10/08 04:11:11;;;;;;;6.20;5.00;;;13.50;99.90;;;;;;5049538;28;20855;-70
2022/10/08 04:13:38;;;;;;;5.07;4.50;;;13.50;99.90;;;;;;5049743;28;20908;-70
2022/10/08 04:16:06;;;;;;;5.37;4.43;;;13.40;99.90;;;;;;5049720;28;20467;-71
2022/10/08 04:18:33;;;;;;;4.77;4.27;;;13.40;99.90;;;;;;5050038;28;20463;-70
2022/10/08 04:21:02;;;;;;;5.00;4.60;;;13.40;99.90;;;;;;5052171;28;20459;-70
2022/10/08 04:23:30;;;;;;;6.97;4.30;;;13.40;99.90;;;;;;5052727;28;20464;-69
2022/10/08 04:25:58;;;;;;;6.80;4.57;;;13.40;99.90;;;;;;5053291;28;20467;-69
2022/10/08 04:28:25;;;;;;;5.10;4.30;;;13.30;99.90;;;;;;5053481;28;20939;-70
2022/10/08 04:30:57;;;;;;;6.30;4.80;;;13.30;99.90;;;;;;5052986;28;20491;-70
2022/10/08 04:33:24;;;;;;;5.40;3.90;;;13.30;99.90;;;;;;5052839;28;20456;-70
2022/10/08 04:35:51;;;;;;;5.37;4.37;;;13.30;99.90;;;;;;5053048;28;20471;-69
2022/10/08 04:38:17;;;;;;;5.00;4.50;;;13.30;99.90;;;;;;5053238;28;20467;-70
2022/10/08 04:40:44;;;;;;;7.60;4.80;;;13.30;99.90;;;;;;5053043;28;20846;-69
2022/10/08 04:43:12;;;;;;;4.00;3.60;;;13.30;99.90;;;;;;5052344;28;20854;-70
2022/10/08 04:45:42;;;;;;;5.90;4.73;;;13.30;99.90;;;;;;5052877;28;20487;-69
2022/10/08 04:48:09;;;;;;;4.87;4.10;;;13.30;99.90;;;;;;5052948;28;20463;-70
2022/10/08 04:50:36;;;;;;;6.20;4.93;;;13.30;99.90;;;;;;5103424;22;20499;-68
2022/10/08 04:53:03;;;;;;;5.63;3.90;;;13.30;99.90;;;;;;5032014;28;20448;-68
2022/10/08 04:55:30;;;;;;;4.80;4.40;;;13.20;99.90;;;;;;5032791;28;20476;-69
2022/10/08 04:57:56;;;;;;;6.40;4.50;;;13.20;99.90;;;;;;5032813;28;20460;-67
2022/10/08 05:00:24;;;;;;;5.27;4.77;;;13.20;99.90;;;;;;5033123;28;21083;-69
2022/10/08 05:02:51;;;;;;;5.47;5.00;;;13.20;99.90;;;;;;5031754;28;20460;-68
2022/10/08 05:05:18;;;;;;;4.83;4.37;;;13.20;99.90;;;;;;5032652;28;20473;-68
2022/10/08 05:07:45;;;;;;;6.20;4.80;;;13.30;99.90;;;;;;5032488;28;20456;-68
2022/10/08 05:10:12;;;;;;;6.00;4.77;;;13.30;99.90;;;;;;5032477;28;21178;-68
2022/10/08 05:12:38;;;;;;;6.63;4.90;;;13.20;99.90;;;;;;5031708;28;20488;-67
2022/10/08 05:15:06;;;;;;;7.73;4.60;;;13.20;99.90;;;;;;5032406;28;20481;-68
2022/10/08 05:17:34;;;;;;;5.30;4.30;;;13.20;99.90;;;;;;5032468;28;20457;-68
2022/10/08 05:20:01;;;;;;;6.60;4.70;;;13.10;99.90;;;;;;5032124;28;20978;-70
2022/10/08 05:22:28;;;;;;;5.00;4.50;;;13.10;99.90;;;;;;5031508;28;20972;-70
2022/10/08 05:24:54;;;;;;;5.93;4.03;;;13.10;99.90;;;;;;5032100;28;20481;-69
2022/10/08 05:27:21;;;;;;;4.70;4.30;;;13.00;99.90;;;;;;5032382;28;20468;-69
2022/10/08 05:29:48;;;;;;;4.83;4.33;;;13.00;99.90;;;;;;5031992;28;20480;-70
2022/10/08 05:32:14;;;;;;;6.80;4.27;;;13.00;99.90;;;;;;5031593;28;20485;-69
2022/10/08 05:34:43;;;;;;;11.37;4.67;;;13.00;99.90;;;;;;5031994;28;20489;-69
2022/10/08 05:37:09;;;;;;;4.50;4.10;;;12.90;99.90;;;;;;5032177;28;20461;-69
2022/10/08 05:39:36;;;;;;;4.93;4.40;;;12.90;99.90;;;;;;5032028;28;20472;-69
2022/10/08 05:42:03;;;;;;;4.07;3.67;;;12.90;99.90;;;;;;5031285;28;20452;-69
2022/10/08 05:44:29;;;;;;;6.57;4.50;;;12.90;99.90;;;;;;5032018;28;20862;-69
2022/10/08 05:46:56;;;;;;;6.20;4.20;;;12.90;99.90;;;;;;5031656;28;20469;-69
2022/10/08 05:49:23;;;;;;;4.80;4.40;;;12.80;99.90;;;;;;5031742;28;20477;-69
2022/10/08 05:51:51;;;;;;;5.50;4.80;;;12.80;99.90;;;;;;5030038;28;20541;-69
2022/10/08 05:54:18;;;;;;;6.87;4.63;;;12.80;99.90;;;;;;5031705;28;20825;-69
2022/10/08 05:56:45;;;;;;;7.60;4.50;;;12.80;99.90;;;;;;5031527;28;20466;-68
2022/10/08 05:59:17;;;;;;;7.80;4.63;;;12.80;99.90;;;;;;5031939;28;20461;-69
2022/10/08 06:01:44;;;;;;;4.67;4.00;;;12.80;99.90;;;;;;5031544;28;20464;-69
2022/10/08 06:04:11;;;;;;;4.43;4.00;;;12.80;99.90;;;;;;5031781;28;20492;-69
2022/10/08 06:06:40;;;;;;;6.40;3.90;;;12.80;99.90;;;;;;5031272;28;20960;-68
2022/10/08 06:09:10;;;;;;;5.00;4.37;;;12.80;99.90;;;;;;5031568;28;20462;-68
2022/10/08 06:11:38;;;;;;;4.47;3.73;;;12.80;99.90;;;;;;5030691;28;20481;-69
2022/10/08 06:14:06;;;;;;;6.47;3.57;;;12.80;99.90;;;;;;5031353;28;20477;-68
2022/10/08 06:16:34;;;;;;;3.73;3.43;;;12.80;99.90;;;;;;5031555;28;20461;-68
2022/10/08 06:19:02;;;;;;;4.37;3.53;;;12.80;99.90;;;;;;5031286;28;20461;-68
2022/10/08 06:21:29;;;;;;;5.13;4.30;;;12.90;99.90;;;;;;5030968;28;20472;-68
2022/10/08 06:23:58;;;;;;;6.77;6.10;;;12.90;99.90;;;;;;5030945;28;21368;-68
2022/10/08 06:26:28;;;;;;;4.95;3.53;;;12.90;99.90;;;;;;5021806;28;20457;-68
2022/10/08 06:28:55;;;;;;;4.63;3.90;;;12.90;99.90;;;;;;5021934;28;20198;-68
2022/10/08 06:31:22;;;;;;;3.97;3.63;;;12.90;99.90;;;;;;5019831;28;20461;-68
2022/10/08 06:33:49;;;;;;;4.07;3.60;;;12.90;99.90;;;;;;5020581;28;20827;-68
2022/10/08 06:36:18;;;;;;;4.47;4.03;;;12.90;99.90;;;;;;5024693;28;20986;-68
2022/10/08 06:38:49;;;;;;;5.63;3.77;;;12.90;99.90;;;;;;5031160;28;20469;-68
2022/10/08 06:41:16;;;;;;;10.33;3.77;;;13.00;99.90;;;;;;5030457;28;20481;-69
2022/10/08 06:43:47;;;;;;;4.60;4.20;;;13.00;99.90;;;;;;5030200;28;20586;-67
2022/10/08 06:46:14;;;;;;;5.23;3.83;;;13.00;99.90;;;;;;5031123;28;20552;-68
2022/10/08 06:48:41;;;;;;;4.97;3.67;;;13.00;99.90;;;;;;5030528;28;20497;-68
2022/10/08 06:51:11;;;;;;;8.83;3.63;;;13.00;99.90;;;;;;5030727;28;20468;-69
2022/10/08 06:53:39;;;;;;;5.20;3.47;;;13.00;99.90;;;;;;5030476;28;20531;-68
2022/10/08 06:56:09;;;;;;;4.70;3.63;;;13.00;99.90;;;;;;5030723;28;20476;-67
2022/10/08 06:58:36;;;;;;;3.30;3.00;;;13.10;99.90;;;;;;5021789;28;20494;-68
2022/10/08 07:01:07;;;;;;;4.10;3.37;;;13.10;99.90;;;;;;5021045;28;20453;-68
2022/10/08 07:03:34;;;;;;;3.60;3.30;;;13.20;99.90;;;;;;5020701;28;20477;-68
2022/10/08 07:06:01;;;;;;;3.73;3.30;;;13.30;99.90;;;;;;5019135;28;20470;-68
2022/10/08 07:08:28;;;;;;;3.67;3.30;;;13.50;99.90;;;;;;5020261;28;20453;-67
2022/10/08 07:10:55;;;;;;;4.23;3.00;;;13.70;99.90;;;;;;5020915;28;20890;-69
2022/10/08 07:13:22;;;;;;;7.07;3.37;;;13.90;99.90;;;;;;5013114;28;20481;-68
2022/10/08 07:15:49;;;;;;;3.57;3.20;;;14.00;99.90;;;;;;5010422;28;20465;-68
2022/10/08 07:18:17;;;;;;;4.30;3.70;;;14.20;99.90;;;;;;5010773;28;20468;-68
2022/10/08 07:20:43;;;;;;;3.93;3.50;;;14.20;99.90;;;;;;5015002;28;20467;-68
2022/10/08 07:23:10;;;;;;;2.97;2.70;;;14.40;99.90;;;;;;5025605;28;20541;-68
2022/10/08 07:25:37;;;;;;;4.73;2.97;;;14.50;99.90;;;;;;5028298;28;20488;-68
2022/10/08 07:28:04;;;;;;;4.10;2.67;;;14.50;99.90;;;;;;5029148;28;20841;-68
2022/10/08 07:30:31;;;;;;;4.23;2.77;;;14.60;99.90;;;;;;5026432;28;20469;-68
2022/10/08 07:32:59;;;;;;;5.10;2.53;;;14.70;99.90;;;;;;5028398;28;20546;-69
2022/10/08 07:35:29;;;;;;;3.33;2.90;;;14.70;99.90;;;;;;5028182;28;20577;-68
2022/10/08 07:37:56;;;;;;;2.70;2.50;;;14.80;99.90;;;;;;5028720;28;20538;-68
2022/10/08 07:40:23;;;;;;;5.53;2.90;;;14.90;99.90;;;;;;5030258;28;20467;-68
2022/10/08 07:42:50;;;;;;;3.23;2.40;;;14.90;99.90;;;;;;5029762;28;20465;-68
2022/10/08 07:45:17;;;;;;;2.70;2.50;;;15.00;99.90;;;;;;5030341;28;20516;-68
2022/10/08 07:47:44;;;;;;;3.23;2.83;;;15.00;99.90;;;;;;5030195;28;20571;-68
2022/10/08 07:50:11;;;;;;;2.57;2.37;;;15.10;99.90;;;;;;5030227;28;20519;-68
2022/10/08 07:52:39;;;;;;;3.30;2.40;;;15.10;99.90;;;;;;5029268;28;20480;-68
2022/10/08 07:55:07;;;;;;;5.63;2.17;;;15.20;99.90;;;;;;5032403;28;20484;-68
2022/10/08 07:57:33;;;;;;;4.93;2.83;;;15.40;99.90;;;;;;5033748;28;20457;-68
2022/10/08 08:00:00;;;;;;;4.60;2.63;;;15.70;99.90;;;;;;5033641;28;20467;-68
2022/10/08 08:02:27;;;;;;;2.27;2.07;;;15.80;99.90;;;;;;5033110;28;20464;-68
2022/10/08 08:04:53;;;;;;;3.33;2.00;;;15.90;99.90;;;;;;5033491;28;20485;-68
2022/10/08 08:07:20;;;;;;;2.87;2.10;;;15.90;99.90;;;;;;5033905;28;20472;-68
2022/10/08 08:09:48;;;;;;;4.50;2.30;;;15.90;99.90;;;;;;5033995;28;20464;-69
2022/10/08 08:12:15;;;;;;;2.20;2.00;;;16.00;99.90;;;;;;5033484;28;20492;-68
2022/10/08 08:14:42;;;;;;;2.60;2.00;;;16.00;99.90;;;;;;5033847;28;20492;-68
2022/10/08 08:17:08;;;;;;;4.07;2.07;;;16.00;99.90;;;;;;5033799;28;20491;-69
2022/10/08 08:19:38;;;;;;;4.70;2.03;;;15.90;99.90;;;;;;5033810;28;20470;-70
2022/10/08 08:22:05;;;;;;;3.40;2.27;;;15.90;99.90;;;;;;5033433;28;20449;-70
2022/10/08 08:24:32;;;;;;;8.13;2.47;;;16.00;99.90;;;;;;5033719;28;20476;-69
2022/10/08 08:27:00;;;;;;;2.27;2.00;;;16.20;99.90;;;;;;5033634;28;20452;-69
2022/10/08 08:29:27;;;;;;;3.87;1.70;;;16.10;99.90;;;;;;5033618;28;20944;-69
2022/10/08 08:31:53;;;;;;;2.80;2.23;;;16.20;99.90;;;;;;5032957;28;20460;-69
2022/10/08 08:34:22;;;;;;;3.30;2.20;;;16.20;99.90;;;;;;5033587;28;20477;-69
2022/10/08 08:36:50;;;;;;;2.37;1.53;;;16.20;99.90;;;;;;5033476;28;20461;-69
2022/10/08 08:39:18;;;;;;;4.80;1.90;;;16.20;99.90;;;;;;5033553;28;20464;-69
2022/10/08 08:42:20;;;;;;;2.47;2.00;;;16.10;99.90;;;;;;5032956;28;20468;-69
2022/10/08 08:44:49;;;;;;;3.43;1.90;;;16.10;99.90;;;;;;5033307;28;20487;-69
2022/10/08 08:47:22;;;;;;;3.20;2.20;;;16.00;99.90;;;;;;5033398;28;20461;-69
2022/10/08 08:49:53;;;;;;;2.30;1.93;;;15.80;99.90;;;;;;5033070;28;20471;-69
2022/10/08 08:52:23;;;;;;;2.60;1.87;;;15.70;99.90;;;;;;5032067;28;20480;-69
2022/10/08 08:54:52;;;;;;;5.50;2.17;;;15.60;99.90;;;;;;5032441;28;20488;-69
2022/10/08 08:57:35;;;;;;;2.53;1.90;;;15.60;99.90;;;;;;5032908;28;20465;-70
2022/10/08 09:00:07;;;;;;;2.83;2.07;;;15.70;99.90;;;;;;5032435;28;20460;-69
2022/10/08 09:02:38;;;;;;;1.77;1.63;;;15.90;99.90;;;;;;5032137;28;20463;-69
2022/10/08 09:05:10;;;;;;;4.43;2.07;;;16.20;99.90;;;;;;5032471;28;20488;-69
2022/10/08 09:07:42;;;;;;;6.20;1.80;;;16.60;99.90;;;;;;5032689;28;20461;-69
2022/10/08 09:10:17;;;;;;;2.63;2.00;;;17.00;99.90;;;;;;5029102;28;20821;-69
2022/10/08 09:12:46;;;;;;;4.90;2.07;;;17.20;99.90;;;;;;5031011;28;20908;-69
2022/10/08 09:15:19;;;;;;;2.67;2.07;;;17.50;99.90;;;;;;5032682;28;20481;-69
2022/10/08 09:17:48;;;;;;;2.13;1.60;;;17.80;99.90;;;;;;5032073;28;20531;-69
2022/10/08 09:20:17;;;;;;;2.80;1.70;;;18.00;99.90;;;;;;5032342;28;20461;-69
2022/10/08 09:22:45;;;;;;;2.70;1.80;;;17.90;99.90;;;;;;5030939;28;20464;-69
2022/10/08 09:25:15;;;;;;;3.63;1.70;;;17.70;99.90;;;;;;5031639;28;20568;-69
2022/10/08 09:27:45;;;;;;;1.80;1.70;;;17.80;99.90;;;;;;5032031;28;20479;-69
2022/10/08 09:30:32;;;;;;;3.40;1.70;;;17.90;99.90;;;;;;5031533;28;20497;-69
2022/10/08 09:33:01;;;;;;;2.67;2.00;;;18.00;99.90;;;;;;5029787;28;20952;-69
2022/10/08 09:35:28;;;;;;;3.27;1.93;;;18.00;99.90;;;;;;5031904;28;20221;-69
2022/10/08 09:37:56;;;;;;;2.57;1.97;;;17.80;99.90;;;;;;5031731;28;20461;-68
2022/10/08 09:40:24;;;;;;;4.40;2.73;;;17.70;99.90;;;;;;5031678;28;20570;-70
2022/10/08 09:43:14;;;;;;;7.53;3.43;;;17.80;99.90;;;;;;5031316;28;20461;-69
2022/10/08 09:45:43;;;;;;;5.10;2.83;;;18.10;99.90;;;;;;5031389;28;20867;-69
2022/10/08 09:48:18;;;;;;;3.50;2.17;;;18.30;99.90;;;;;;5031527;28;20469;-69
2022/10/08 09:51:01;;;;;;;2.37;2.17;;;18.30;99.90;;;;;;5031459;28;20478;-69
2022/10/08 09:53:32;;;;;;;5.07;2.10;;;18.10;99.90;;;;;;5030839;28;20488;-69
2022/10/08 09:56:01;;;;;;;6.03;1.93;;;17.80;99.90;;;;;;5031515;28;20461;-69
2022/10/08 09:58:32;;;;;;;6.30;2.33;;;17.70;99.90;;;;;;5031661;28;20465;-69
2022/10/08 10:01:03;;;;;;;3.40;1.97;;;17.60;99.90;;;;;;5030754;28;20457;-69
2022/10/08 10:03:31;;;;;;;2.63;1.60;;;17.50;99.90;;;;;;5030908;28;20492;-69
2022/10/08 10:05:59;;;;;;;2.93;2.20;;;17.40;99.90;;;;;;5031526;28;20469;-69
2022/10/08 10:08:44;;;;;;;2.13;1.80;;;17.20;99.90;;;;;;5031191;28;20472;-69
2022/10/08 10:11:14;;;;;;;2.40;2.10;;;17.00;99.90;;;;;;5031131;28;20514;-69
2022/10/08 10:13:43;;;;;;;2.77;1.90;;;17.00;99.90;;;;;;5027073;28;20493;-69
2022/10/08 10:16:14;;;;;;;3.33;2.23;;;17.00;99.90;;;;;;5028995;28;20465;-69
2022/10/08 10:18:51;;;;;;;2.57;1.77;;;17.00;99.90;;;;;;5030005;28;20476;-69
2022/10/08 10:21:23;;;;;;;2.63;1.87;;;17.00;99.90;;;;;;5030407;28;20464;-69
2022/10/08 10:24:04;;;;;;;3.30;1.63;;;16.90;99.90;;;;;;5028587;28;20572;-69
2022/10/08 10:26:36;;;;;;;3.87;1.80;;;16.90;99.90;;;;;;5027070;28;20468;-69
2022/10/08 10:29:09;;;;;;;4.10;2.33;;;17.00;99.90;;;;;;5029424;28;20461;-69
2022/10/08 10:31:41;;;;;;;2.70;1.43;;;17.10;99.90;;;;;;5029603;28;20497;-69
2022/10/08 10:34:13;;;;;;;2.20;1.80;;;17.20;99.90;;;;;;5029947;28;20500;-69
2022/10/08 10:36:45;;;;;;;3.27;1.70;;;17.20;99.90;;;;;;5030491;28;20518;-69
2022/10/08 10:39:23;;;;;;;4.40;2.40;;;17.20;99.90;;;;;;5030076;28;20840;-69
2022/10/08 10:41:55;;;;;;;6.07;2.20;;;17.20;99.90;;;;;;5029466;28;20501;-69
2022/10/08 10:44:26;;;;;;;5.70;2.80;;;17.30;99.90;;;;;;5030237;28;20481;-69
2022/10/08 10:46:56;;;;;;;2.93;1.87;;;17.50;99.90;;;;;;5025950;28;20461;-69
2022/10/08 10:49:27;;;;;;;2.50;1.23;;;17.80;99.90;;;;;;5029835;28;20508;-69
2022/10/08 10:52:03;;;;;;;3.10;1.90;;;18.30;99.90;;;;;;5027444;28;20461;-69
2022/10/08 10:54:58;;;;;;;2.87;1.90;;;18.70;99.90;;;;;;5030229;28;20497;-69
2022/10/08 10:57:41;;;;;;;3.00;1.90;;;18.90;99.90;;;;;;5028240;28;20835;-69
2022/10/08 11:00:17;;;;;;;2.43;1.70;;;19.00;99.90;;;;;;5029795;28;20803;-69
2022/10/08 11:02:49;;;;;;;4.40;1.67;;;19.20;99.90;;;;;;5028818;28;20472;-69
2022/10/08 11:05:22;;;;;;;3.77;1.60;;;19.30;99.90;;;;;;5029825;28;20515;-69
2022/10/08 11:08:15;;;;;;;4.90;2.13;;;19.40;99.90;;;;;;5029728;28;20465;-69
2022/10/08 11:10:53;;;;;;;4.27;2.00;;;19.60;99.90;;;;;;5030069;28;20522;-69
2022/10/08 11:13:34;;;;;;;4.73;2.47;;;19.60;99.90;;;;;;5029394;28;20478;-69
2022/10/08 11:16:15;;;;;;;3.10;1.63;;;19.60;99.90;;;;;;5029811;28;20465;-69
2022/10/08 11:18:49;;;;;;;2.30;1.80;;;19.80;99.90;;;;;;5029713;28;20466;-68
2022/10/08 11:21:29;;;;;;;1.90;1.40;;;20.00;99.90;;;;;;5029184;28;20461;-69
2022/10/08 11:24:09;;;;;;;2.80;1.90;;;20.10;99.90;;;;;;5029834;28;20470;-69
2022/10/08 11:26:42;;;;;;;4.67;1.70;;;19.90;99.90;;;;;;5029535;28;20470;-69
2022/10/08 11:29:19;;;;;;;3.27;2.17;;;19.80;99.90;;;;;;5030950;28;20465;-69
2022/10/08 11:31:49;;;;;;;1.97;1.57;;;19.70;99.90;;;;;;5032277;28;20469;-69
2022/10/08 11:34:23;;;;;;;2.80;1.87;;;19.70;99.90;;;;;;5033626;28;21122;-68
2022/10/08 11:37:06;;;;;;;3.97;1.70;;;19.80;99.90;;;;;;5032734;28;21000;-69
2022/10/08 11:39:42;;;;;;;1.93;1.53;;;19.80;99.90;;;;;;5033436;28;20472;-68
2022/10/08 11:42:17;;;;;;;3.17;1.80;;;20.00;99.90;;;;;;5032184;28;21044;-69
2022/10/08 11:44:44;;;;;;;4.17;1.73;;;20.00;99.90;;;;;;5033609;28;20567;-68
2022/10/08 11:47:51;;;;;;;1.87;1.60;;;20.10;99.90;;;;;;5033926;28;20476;-68
2022/10/08 11:50:25;;;;;;;4.33;1.70;;;20.20;99.90;;;;;;5033337;28;20927;-69
2022/10/08 11:52:55;;;;;;;2.77;1.80;;;20.20;99.90;;;;;;5032886;28;20544;-69
2022/10/08 11:55:25;;;;;;;2.07;1.60;;;20.10;99.90;;;;;;5032771;28;20507;-69
2022/10/08 11:57:58;;;;;;;3.07;1.70;;;20.10;99.90;;;;;;5033365;28;20492;-69
2022/10/08 12:00:34;;;;;;;4.33;1.50;;;20.20;99.90;;;;;;5196253;23;20876;-67
2022/10/08 12:03:06;;;;;;;2.93;1.70;;;20.00;99.90;;;;;;5032743;28;20544;-67
2022/10/08 12:05:40;;;;;;;3.30;1.63;;;19.90;99.90;;;;;;5033054;28;20483;-67
2022/10/08 12:08:07;;;;;;;3.03;1.80;;;19.80;99.90;;;;;;5032321;28;20479;-67
2022/10/08 12:10:36;;;;;;;2.23;1.67;;;19.50;99.90;;;;;;5033120;28;21008;-67
2022/10/08 12:13:33;;;;;;;4.00;1.80;;;19.20;99.90;;;;;;5032603;28;20472;-67
2022/10/08 12:16:03;;;;;;;2.70;1.60;;;18.80;99.90;;;;;;5033663;28;20931;-67
2022/10/08 12:18:49;;;;;;;2.90;1.60;;;18.60;99.90;;;;;;5029366;28;20963;-67
2022/10/08 12:21:36;;;;;;;3.40;1.70;;;18.70;99.90;;;;;;5033073;28;20457;-67
2022/10/08 12:24:30;;;;;;;3.50;1.80;;;18.50;99.90;;;;;;5033971;28;20516;-67
2022/10/08 12:27:21;;;;;;;2.40;1.40;;;18.30;99.90;;;;;;5034088;28;20460;-67
2022/10/08 12:29:56;;;;;;;1.60;1.30;;;18.40;99.90;;;;;;5033546;28;20464;-68
2022/10/08 12:32:24;;;;;;;2.13;1.60;;;18.70;99.90;;;;;;5032795;28;20463;-67
2022/10/08 12:34:52;;;;;;;2.93;1.53;;;18.80;99.90;;;;;;5032828;28;20587;-67
2022/10/08 12:37:42;;;;;;;1.50;1.40;;;18.80;99.90;;;;;;5033120;28;20826;-67
2022/10/08 12:40:19;;;;;;;1.97;1.77;;;18.60;99.90;;;;;;5032339;28;20933;-67
2022/10/08 12:42:51;;;;;;;4.97;1.67;;;18.30;99.90;;;;;;5031855;28;20589;-67
2022/10/08 12:45:25;;;;;;;1.70;1.23;;;18.40;99.90;;;;;;5033325;28;20507;-68
2022/10/08 12:48:01;;;;;;;3.47;1.67;;;18.70;99.90;;;;;;5032857;28;20975;-68
2022/10/08 12:50:41;;;;;;;3.70;1.73;;;19.00;99.90;;;;;;5033011;28;20575;-68
2022/10/08 12:53:13;;;;;;;4.13;1.40;;;19.20;99.90;;;;;;5032460;28;20472;-68
2022/10/08 12:55:46;;;;;;;3.03;1.60;;;19.30;99.90;;;;;;5032369;28;20485;-68
2022/10/08 12:58:20;;;;;;;2.33;1.40;;;19.40;99.90;;;;;;5032675;28;20461;-68
2022/10/08 13:00:52;;;;;;;1.77;1.57;;;19.50;99.90;;;;;;5012546;28;20845;-68
2022/10/08 13:03:19;;;;;;;2.20;1.60;;;19.50;99.90;;;;;;5012383;28;20466;-69
2022/10/08 13:05:46;;;;;;;2.60;1.63;;;19.50;99.90;;;;;;5012294;28;20461;-68